LFSN 301030Z AUTO 06017KT CAVOK 21/04 Q1021

ElémentsDécodage
LFSN Station météo située sur l'aérodrome de NANCY Essey
301030Z émis le 30 du mois à 10h30 UTC
AUTO Bulletin édité par un automate
06017KT vent du 060°, 17 noeuds
CAVOK Ceiling And Visibility OK
- Visibilité de 10 Km ou plus
- Pas de nuage au-dessous de 1500m ou au-dessous de l'altitude minimale du secteur la plus élevée (si>1500m) et absence de CB
- pas de temps présent significatif
21/04 température 21°C, point de rosée 04°C
 soit une humidité relative de 33%
Q1021 la pression au niveau de la mer (QNH) est de 1021 hPa